Time;durP1;ratioP1;P1;durP2;ratioP2;P2;SDS_P1;SDS_P2;PMS_P1;PMS_P2;Temp;Humidity;BMP_temperature;BMP_pressure;BME280_temperature;BME280_humidity;BME280_pressure;Samples;Min_cycle;Max_cycle;Signal;HPM_P1;HPM_P2
2022/10/09 00:00:12;;;;;;;7.45;3.22;;;;;;;2.63;100.00;93701.72;2117875;27;20027;-71
2022/10/09 00:01:17;;;;;;;8.15;3.17;;;;;;;2.62;100.00;93699.44;2125071;27;20034;-69
2022/10/09 00:02:18;;;;;;;9.13;3.85;;;;;;;2.60;100.00;93702.44;2117937;27;20039;-73
2022/10/09 00:03:19;;;;;;;10.50;4.38;;;;;;;2.59;100.00;93706.19;2117676;27;20038;-70
2022/10/09 00:04:20;;;;;;;12.35;3.75;;;;;;;2.56;100.00;93703.50;2117066;27;20168;-69
2022/10/09 00:05:22;;;;;;;6.22;3.20;;;;;;;2.56;100.00;93706.88;2117450;27;20035;-69
2022/10/09 00:06:32;;;;;;;7.28;3.47;;;;;;;2.59;100.00;93706.19;2120065;27;20134;-70
2022/10/09 00:07:33;;;;;;;5.72;3.40;;;;;;;2.56;100.00;93701.59;2118006;27;20034;-69
2022/10/09 00:08:38;;;;;;;5.22;3.40;;;;;;;2.59;100.00;93700.91;2117246;27;20039;-70
2022/10/09 00:09:39;;;;;;;6.13;3.30;;;;;;;2.66;100.00;93700.25;2113169;27;20138;-73
2022/10/09 00:10:43;;;;;;;5.30;3.47;;;;;;;2.82;100.00;93700.16;2116962;27;20030;-69
2022/10/09 00:11:44;;;;;;;7.75;3.30;;;;;;;2.73;100.00;93703.03;2117084;27;20557;-72
2022/10/09 00:12:45;;;;;;;8.43;3.42;;;;;;;2.67;100.00;93699.16;2117374;27;20083;-69
2022/10/09 00:13:47;;;;;;;9.82;4.13;;;;;;;2.72;100.00;93699.63;2117383;27;20031;-72
2022/10/09 00:14:48;;;;;;;7.95;3.58;;;;;;;2.63;100.00;93696.44;2117689;27;20023;-73
2022/10/09 00:15:49;;;;;;;11.45;4.07;;;;;;;2.78;100.00;93692.19;2117533;27;20106;-70
2022/10/09 00:16:50;;;;;;;6.90;3.83;;;;;;;2.73;100.00;93695.13;2121090;27;20075;-68
2022/10/09 00:17:51;;;;;;;7.10;3.83;;;;;;;2.94;100.00;93692.06;2119918;27;20551;-71
2022/10/09 00:18:53;;;;;;;6.63;3.75;;;;;;;3.01;100.00;93692.94;2117901;27;20031;-72
2022/10/09 00:19:54;;;;;;;11.35;4.70;;;;;;;2.96;100.00;93700.41;2117812;27;20598;-72
2022/10/09 00:20:55;;;;;;;9.40;4.47;;;;;;;2.73;100.00;93689.84;2116835;27;20023;-76
2022/10/09 00:21:56;;;;;;;7.82;4.18;;;;;;;2.89;100.00;93697.63;2122655;27;20049;-70
2022/10/09 00:22:56;;;;;;;8.57;4.50;;;;;;;2.89;100.00;93695.75;2122645;27;20140;-71
2022/10/09 00:24:00;;;;;;;16.23;4.85;;;;;;;2.78;100.00;93694.81;2114980;27;20031;-70
2022/10/09 00:25:01;;;;;;;7.00;4.55;;;;;;;2.77;100.00;93694.06;2121318;27;20527;-73
2022/10/09 00:26:02;;;;;;;11.00;4.57;;;;;;;2.63;100.00;93693.03;2118435;27;20035;-70
2022/10/09 00:27:03;;;;;;;8.60;4.45;;;;;;;2.72;100.00;93685.66;2122365;27;20090;-71
2022/10/09 00:28:04;;;;;;;10.70;5.05;;;;;;;2.74;100.00;93689.47;2121735;27;20019;-72
2022/10/09 00:29:04;;;;;;;8.88;4.43;;;;;;;2.71;100.00;93686.78;2108263;28;20477;-70
2022/10/09 00:30:06;;;;;;;10.93;5.22;;;;;;;2.61;100.00;93690.00;2117161;27;20135;-70
2022/10/09 00:31:09;;;;;;;15.98;4.78;;;;;;;2.62;100.00;93684.38;2117819;27;20019;-71
2022/10/09 00:32:10;;;;;;;9.57;5.40;;;;;;;2.81;100.00;93685.41;2118100;27;20059;-70
2022/10/09 00:33:11;;;;;;;8.98;4.38;;;;;;;2.75;100.00;93687.59;2120370;27;20034;-70
2022/10/09 00:34:12;;;;;;;11.35;4.25;;;;;;;2.66;100.00;93685.19;2116606;27;20428;-71
2022/10/09 00:35:13;;;;;;;9.18;3.95;;;;;;;2.61;100.00;93692.63;2114402;27;20031;-70
2022/10/09 00:36:18;;;;;;;6.60;3.80;;;;;;;2.59;100.00;93685.09;2120916;27;20357;-71
2022/10/09 00:37:19;;;;;;;8.82;4.22;;;;;;;2.52;100.00;93690.97;2119134;27;20023;-71
2022/10/09 00:38:20;;;;;;;11.10;4.30;;;;;;;2.58;100.00;93693.34;2124186;27;20131;-70
2022/10/09 00:39:21;;;;;;;9.18;4.28;;;;;;;2.58;100.00;93688.81;2122129;27;20803;-71
2022/10/09 00:40:23;;;;;;;7.65;4.15;;;;;;;2.57;100.00;93691.81;2119425;27;20485;-71
2022/10/09 00:41:29;;;;;;;9.38;4.13;;;;;;;2.59;100.00;93676.38;2117568;27;20031;-71
2022/10/09 00:42:30;;;;;;;6.20;3.70;;;;;;;2.63;100.00;93683.25;2118922;27;20815;-71
2022/10/09 00:43:56;;;;;;;7.18;4.25;;;;;;;2.57;100.00;93681.25;2122015;27;20034;-73
2022/10/09 00:44:59;;;;;;;8.73;3.95;;;;;;;2.51;100.00;93684.19;2117577;27;20385;-71
2022/10/09 00:46:01;;;;;;;7.45;3.90;;;;;;;2.54;100.00;93680.06;2117229;27;20023;-71
2022/10/09 00:47:02;;;;;;;7.20;3.95;;;;;;;2.50;100.00;93677.41;2120372;27;20098;-71
2022/10/09 00:48:06;;;;;;;7.22;3.97;;;;;;;2.59;100.00;93677.16;2116552;27;20373;-71
2022/10/09 00:49:13;;;;;;;7.40;3.92;;;;;;;2.61;100.00;93682.84;2117774;27;20019;-73
2022/10/09 00:50:20;;;;;;;9.82;4.30;;;;;;;2.60;100.00;93680.56;2117562;27;20039;-71
2022/10/09 00:51:21;;;;;;;4.28;3.88;;;;;;;2.61;100.00;93682.09;2116974;27;20038;-71
2022/10/09 00:52:24;;;;;;;9.70;3.78;;;;;;;2.59;100.00;93686.94;2117307;27;20437;-71
2022/10/09 00:53:28;;;;;;;9.13;4.07;;;;;;;2.56;100.00;93677.84;2119684;27;20701;-72
2022/10/09 00:54:33;;;;;;;6.60;3.92;;;;;;;2.36;100.00;93681.63;2122110;27;20019;-71
2022/10/09 00:55:35;;;;;;;8.75;3.72;;;;;;;2.56;100.00;93677.84;2116090;27;20026;-75
2022/10/09 00:56:37;;;;;;;9.55;3.90;;;;;;;2.52;100.00;93674.41;2116663;27;20085;-72
2022/10/09 00:57:40;;;;;;;5.63;4.05;;;;;;;2.55;100.00;93672.91;2117087;27;20080;-72
2022/10/09 00:58:41;;;;;;;9.40;4.07;;;;;;;2.48;100.00;93674.31;2117707;27;20031;-74
2022/10/09 00:59:42;;;;;;;7.80;3.75;;;;;;;2.46;100.00;93678.44;2116584;27;20604;-75
2022/10/09 01:00:43;;;;;;;7.00;3.60;;;;;;;2.41;100.00;93671.56;2117839;27;20038;-72
2022/10/09 01:01:45;;;;;;;5.78;3.63;;;;;;;2.46;100.00;93676.56;2118201;27;20030;-71
2022/10/09 01:02:46;;;;;;;6.43;3.60;;;;;;;2.42;100.00;93675.75;2118024;27;20118;-72
2022/10/09 01:03:47;;;;;;;5.75;3.85;;;;;;;2.36;100.00;93671.84;2119380;27;20042;-74
2022/10/09 01:04:48;;;;;;;7.03;3.20;;;;;;;2.44;100.00;93678.78;2124211;27;20057;-72
2022/10/09 01:06:01;;;;;;;5.32;3.50;;;;;;;2.38;100.00;93674.16;2117118;27;20038;-71
2022/10/09 01:07:23;;;;;;;8.70;3.13;;;;;;;2.38;100.00;93672.28;2117586;27;20033;-70
2022/10/09 01:08:59;;;;;;;17.58;4.30;;;;;;;2.53;100.00;93673.28;2117449;27;20039;-72
2022/10/09 01:10:33;;;;;;;9.20;3.70;;;;;;;2.45;100.00;93669.75;2106580;27;20031;-72
2022/10/09 01:11:49;;;;;;;10.00;4.13;;;;;;;2.46;100.00;93662.63;2117228;27;20028;-72
2022/10/09 01:13:02;;;;;;;11.55;4.03;;;;;;;2.39;100.00;93665.13;2117506;27;20030;-69
2022/10/09 01:14:26;;;;;;;9.85;3.78;;;;;;;2.42;100.00;93667.06;2117306;27;20096;-72
2022/10/09 01:15:54;;;;;;;12.73;3.85;;;;;;;2.47;100.00;93664.13;2116800;27;20112;-69
2022/10/09 01:17:04;;;;;;;8.07;3.35;;;;;;;2.44;100.00;93670.84;2113088;27;20051;-69
2022/10/09 01:18:24;;;;;;;;;;;;;;;2.29;100.00;93669.09;2117975;27;20113;-69
2022/10/09 01:20:18;;;;;;;5.35;3.25;;;;;;;2.37;100.00;93665.47;2118579;27;19911;-69
2022/10/09 01:21:30;;;;;;;7.57;3.60;;;;;;;2.31;100.00;93656.31;2093412;27;20122;-74
2022/10/09 01:22:53;;;;;;;8.82;3.40;;;;;;;2.31;100.00;93653.66;2117797;27;20035;-70
2022/10/09 01:24:06;;;;;;;7.53;3.90;;;;;;;2.29;100.00;93650.63;2118923;27;20023;-69
2022/10/09 01:25:14;;;;;;;8.45;3.60;;;;;;;2.23;100.00;93654.66;2117099;27;20035;-71
2022/10/09 01:26:37;;;;;;;7.38;3.20;;;;;;;2.20;100.00;93652.72;2116654;27;20450;-69
2022/10/09 01:27:40;;;;;;;5.90;3.00;;;;;;;2.13;100.00;93655.97;2116536;27;20019;-69
2022/10/09 01:28:48;;;;;;;11.57;3.30;;;;;;;2.22;100.00;93653.13;2117035;27;20522;-70
2022/10/09 01:29:59;;;;;;;5.78;3.42;;;;;;;2.25;100.00;93655.06;2120422;27;20023;-73
2022/10/09 01:31:03;;;;;;;7.95;3.25;;;;;;;2.23;100.00;93652.00;2117962;27;20646;-70
2022/10/09 01:32:06;;;;;;;5.00;3.20;;;;;;;2.23;100.00;93652.78;2117333;27;20028;-72
2022/10/09 01:33:10;;;;;;;9.52;3.50;;;;;;;2.20;100.00;93642.19;2116883;27;20083;-71
2022/10/09 01:34:13;;;;;;;13.02;3.40;;;;;;;2.09;100.00;93639.34;2117052;27;20043;-70
2022/10/09 01:35:14;;;;;;;5.28;3.95;;;;;;;2.11;100.00;93637.13;2118113;27;20031;-73
2022/10/09 01:36:17;;;;;;;10.15;4.30;;;;;;;2.14;100.00;93639.03;2117271;27;20114;-70
2022/10/09 01:37:21;;;;;;;8.32;3.50;;;;;;;2.12;100.00;93638.63;2118490;27;20038;-71
2022/10/09 01:38:23;;;;;;;14.35;3.60;;;;;;;2.08;100.00;93634.41;2117250;27;20028;-70
2022/10/09 01:39:26;;;;;;;7.22;3.88;;;;;;;2.05;100.00;93629.81;2118950;27;20380;-72
2022/10/09 01:40:28;;;;;;;6.95;3.75;;;;;;;2.07;100.00;93631.03;2119743;27;20027;-72
2022/10/09 01:41:29;;;;;;;9.80;3.42;;;;;;;2.10;100.00;93634.81;2117434;27;20019;-72
2022/10/09 01:42:32;;;;;;;9.60;3.50;;;;;;;2.10;100.00;93626.91;2117835;27;20110;-69
2022/10/09 01:43:34;;;;;;;6.20;3.30;;;;;;;2.04;100.00;93629.06;2116796;27;20031;-70
2022/10/09 01:44:35;;;;;;;9.45;3.53;;;;;;;2.08;100.00;93629.13;2116928;27;20343;-70
2022/10/09 01:45:42;;;;;;;7.07;3.40;;;;;;;2.11;100.00;93625.78;2122678;27;20128;-69
2022/10/09 01:46:44;;;;;;;8.85;3.50;;;;;;;1.92;100.00;93631.84;2117271;27;20401;-69
2022/10/09 01:47:45;;;;;;;6.40;3.65;;;;;;;1.98;100.00;93625.97;2117151;27;20023;-69
2022/10/09 01:48:54;;;;;;;5.20;2.85;;;;;;;2.01;100.00;93622.59;2117079;27;20102;-68
2022/10/09 01:50:13;;;;;;;22.08;5.30;;;;;;;1.99;100.00;93624.84;2116466;27;20031;-69
2022/10/09 01:51:15;;;;;;;8.07;3.25;;;;;;;2.02;100.00;93620.75;2117557;27;20493;-70
2022/10/09 01:52:45;;;;;;;8.13;4.20;;;;;;;1.97;100.00;93615.75;2113703;27;20024;-70
2022/10/09 01:53:50;;;;;;;13.63;4.45;;;;;;;2.06;100.00;93611.00;2116868;27;20023;-69
2022/10/09 01:55:21;;;;;;;7.80;3.70;;;;;;;2.00;100.00;93615.81;2117189;27;20054;-71
2022/10/09 01:56:27;;;;;;;12.70;3.45;;;;;;;1.99;100.00;93609.03;2119549;27;20039;-72
2022/10/09 01:57:43;;;;;;;15.07;3.53;;;;;;;2.05;100.00;93609.50;2118821;27;20126;-69
2022/10/09 01:58:57;;;;;;;4.82;3.35;;;;;;;2.12;100.00;93598.34;2117002;27;20106;-71
2022/10/09 02:00:01;;;;;;;7.65;3.53;;;;;;;2.09;100.00;93602.41;2116896;27;20089;-69
2022/10/09 02:01:07;;;;;;;13.35;3.78;;;;;;;2.10;100.00;93605.81;2116890;27;20464;-71
2022/10/09 02:02:10;;;;;;;12.15;4.10;;;;;;;2.07;100.00;93599.38;2117180;27;20453;-69
2022/10/09 02:03:14;;;;;;;8.57;3.55;;;;;;;2.06;100.00;93599.72;2116882;27;20473;-69
2022/10/09 02:04:17;;;;;;;8.02;3.25;;;;;;;2.08;100.00;93597.50;2117061;27;20023;-70
2022/10/09 02:05:25;;;;;;;10.60;3.58;;;;;;;2.11;100.00;93589.66;2116028;27;20377;-70
2022/10/09 02:06:27;;;;;;;7.72;3.70;;;;;;;2.02;100.00;93594.41;2108056;27;20780;-70
2022/10/09 02:07:31;;;;;;;7.47;3.40;;;;;;;2.00;100.00;93597.38;2116236;27;20484;-73
2022/10/09 02:08:33;;;;;;;6.10;3.50;;;;;;;2.01;100.00;93593.59;2117549;27;20027;-70
2022/10/09 02:09:38;;;;;;;6.18;3.53;;;;;;;1.98;100.00;93599.59;2117051;28;20050;-70
2022/10/09 02:10:43;;;;;;;9.75;3.70;;;;;;;1.98;100.00;93599.59;2116547;27;20027;-72
2022/10/09 02:11:50;;;;;;;6.72;3.13;;;;;;;2.04;100.00;93599.31;2116909;28;20027;-70
2022/10/09 02:12:56;;;;;;;15.05;3.80;;;;;;;1.96;100.00;93595.78;2119000;27;20027;-72
2022/10/09 02:16:11;;;;;;;;;;;;;;;1.97;100.00;93597.28;2143654;27;20530;-72
2022/10/09 02:17:20;;;;;;;4.20;2.95;;;;;;;1.95;100.00;93595.00;2127388;27;19915;-71
2022/10/09 02:18:34;;;;;;;7.38;3.35;;;;;;;1.89;100.00;93595.63;2128333;27;20156;-73
2022/10/09 02:19:49;;;;;;;7.57;3.60;;;;;;;1.89;100.00;93590.34;2137101;27;20046;-74
2022/10/09 02:20:59;;;;;;;5.28;3.35;;;;;;;1.95;100.00;93587.09;2127990;27;20488;-72
2022/10/09 02:22:11;;;;;;;7.30;3.45;;;;;;;1.90;100.00;93587.41;2129496;27;20031;-71
2022/10/09 02:23:13;;;;;;;7.72;3.67;;;;;;;1.86;100.00;93586.56;2132716;27;20444;-70
2022/10/09 02:24:18;;;;;;;4.28;2.90;;;;;;;1.92;100.00;93587.03;2135031;27;20041;-72
2022/10/09 02:25:20;;;;;;;5.70;3.42;;;;;;;1.85;100.00;93582.41;2137159;27;20026;-71
2022/10/09 02:26:21;;;;;;;5.95;3.58;;;;;;;1.80;100.00;93585.34;2137199;27;20710;-72
2022/10/09 02:27:24;;;;;;;6.75;3.63;;;;;;;1.81;100.00;93588.72;2127981;27;20043;-72
2022/10/09 02:28:25;;;;;;;10.07;3.55;;;;;;;1.88;100.00;93584.31;2119145;27;20058;-70
2022/10/09 02:29:26;;;;;;;8.32;3.90;;;;;;;1.81;100.00;93584.22;2127285;27;20035;-70
2022/10/09 02:30:37;;;;;;;10.27;3.97;;;;;;;1.78;100.00;93587.53;2136878;27;20102;-71
2022/10/09 02:31:40;;;;;;;8.98;4.03;;;;;;;1.82;100.00;93584.97;2133365;27;20033;-72
2022/10/09 02:32:42;;;;;;;8.38;4.00;;;;;;;1.81;100.00;93586.09;2137144;27;20030;-70
2022/10/09 02:33:43;;;;;;;8.93;4.03;;;;;;;1.68;100.00;93583.59;2136762;27;20032;-72
2022/10/09 02:34:44;;;;;;;4.85;3.78;;;;;;;1.73;100.00;93585.94;2136943;27;20452;-73
2022/10/09 02:35:47;;;;;;;5.97;3.65;;;;;;;1.77;100.00;93588.66;2136638;27;20042;-71
2022/10/09 02:36:49;;;;;;;6.80;3.90;;;;;;;1.71;100.00;93579.50;2136820;27;20114;-74
2022/10/09 02:37:50;;;;;;;8.13;3.72;;;;;;;1.69;100.00;93585.13;2136995;27;20061;-72
2022/10/09 02:38:53;;;;;;;5.20;3.88;;;;;;;1.70;100.00;93585.88;2136801;27;20037;-71
2022/10/09 02:39:53;;;;;;;6.43;3.67;;;;;;;1.74;100.00;93579.56;2137070;27;20034;-73
2022/10/09 02:40:59;;;;;;;5.47;4.22;;;;;;;1.68;100.00;93590.75;2137121;27;20114;-73
2022/10/09 02:42:00;;;;;;;8.82;3.97;;;;;;;1.69;100.00;93589.63;2135652;27;20067;-73
2022/10/09 02:43:01;;;;;;;7.32;4.88;;;;;;;1.71;100.00;93582.13;2136722;27;20038;-71
2022/10/09 02:44:04;;;;;;;6.07;3.75;;;;;;;1.70;100.00;93588.50;2136234;27;20468;-71
2022/10/09 02:45:06;;;;;;;12.82;3.67;;;;;;;1.72;100.00;93583.66;2137126;27;20054;-74
2022/10/09 02:46:07;;;;;;;8.60;3.88;;;;;;;1.67;100.00;93586.59;2129103;27;20538;-72
2022/10/09 02:47:08;;;;;;;13.35;4.15;;;;;;;1.64;100.00;93580.13;2137288;27;20071;-73
2022/10/09 02:48:09;;;;;;;10.18;4.03;;;;;;;1.67;100.00;93578.69;2136864;27;20022;-74
2022/10/09 02:49:10;;;;;;;14.77;4.65;;;;;;;1.61;100.00;93582.69;2136780;27;20030;-71
2022/10/09 02:50:11;;;;;;;4.03;3.40;;;;;;;1.58;100.00;93586.78;2136500;27;20029;-71
2022/10/09 02:51:12;;;;;;;5.97;4.13;;;;;;;1.61;100.00;93587.97;2137666;27;20384;-71
2022/10/09 02:52:13;;;;;;;13.60;4.63;;;;;;;1.63;100.00;93591.78;2137241;27;20031;-71
2022/10/09 02:53:14;;;;;;;10.95;4.20;;;;;;;1.69;100.00;93579.09;2136523;27;20080;-71
2022/10/09 02:54:15;;;;;;;5.00;3.75;;;;;;;1.68;100.00;93577.56;2136642;27;20053;-71
2022/10/09 02:55:16;;;;;;;6.45;4.18;;;;;;;1.64;100.00;93584.63;2134833;27;20066;-71
2022/10/09 02:56:17;;;;;;;7.80;3.92;;;;;;;1.61;100.00;93574.78;2136799;27;20098;-71
2022/10/09 02:57:18;;;;;;;8.77;4.05;;;;;;;1.64;100.00;93579.38;2137087;27;20029;-71
2022/10/09 02:58:19;;;;;;;12.07;4.53;;;;;;;1.66;100.00;93579.78;2136468;27;20040;-71
2022/10/09 02:59:20;;;;;;;7.95;4.70;;;;;;;1.65;100.00;93581.66;2136680;27;20360;-73
2022/10/09 03:00:21;;;;;;;6.65;4.13;;;;;;;1.63;100.00;93577.84;2130458;27;20461;-71
2022/10/09 03:01:22;;;;;;;6.07;4.70;;;;;;;1.63;100.00;93577.84;2135067;27;20547;-71
2022/10/09 03:02:25;;;;;;;7.55;4.03;;;;;;;1.66;100.00;93579.78;2136975;27;20108;-74
2022/10/09 03:03:26;;;;;;;6.43;3.80;;;;;;;1.60;100.00;93570.63;2127594;27;20031;-71
2022/10/09 03:04:27;;;;;;;8.88;3.88;;;;;;;1.59;100.00;93580.41;2127325;27;20031;-71
2022/10/09 03:05:28;;;;;;;7.78;4.30;;;;;;;1.63;100.00;93580.50;2135940;27;20459;-71
2022/10/09 03:06:29;;;;;;;8.85;3.95;;;;;;;1.61;100.00;93574.78;2136890;27;20658;-71
2022/10/09 03:07:30;;;;;;;7.85;4.28;;;;;;;1.59;100.00;93575.16;2136894;27;20031;-71
2022/10/09 03:08:31;;;;;;;8.10;4.95;;;;;;;1.61;100.00;93574.78;2136968;27;20025;-70
2022/10/09 03:09:32;;;;;;;10.65;4.93;;;;;;;1.59;100.00;93583.03;2136906;27;20540;-74
2022/10/09 03:10:36;;;;;;;9.00;4.60;;;;;;;1.54;100.00;93578.06;2135890;27;20034;-72
2022/10/09 03:11:37;;;;;;;9.13;4.13;;;;;;;1.52;100.00;93572.34;2132382;27;20025;-71
2022/10/09 03:12:38;;;;;;;7.35;3.90;;;;;;;1.55;100.00;93576.19;2136883;27;20022;-71
2022/10/09 03:13:39;;;;;;;8.43;4.13;;;;;;;1.56;100.00;93580.34;2136811;27;20495;-71
2022/10/09 03:14:40;;;;;;;6.97;3.83;;;;;;;1.61;100.00;93572.16;2136794;27;20045;-72
2022/10/09 03:15:41;;;;;;;8.45;4.20;;;;;;;1.60;100.00;93576.66;2135603;27;20034;-73
2022/10/09 03:16:42;;;;;;;8.82;4.28;;;;;;;1.58;100.00;93576.25;2136704;27;20030;-71
2022/10/09 03:17:43;;;;;;;5.35;3.90;;;;;;;1.55;100.00;93570.91;2136232;27;20030;-73
2022/10/09 03:18:45;;;;;;;12.23;4.15;;;;;;;1.57;100.00;93569.44;2136575;27;20022;-71
2022/10/09 03:19:45;;;;;;;9.55;4.03;;;;;;;1.58;100.00;93570.19;2136706;27;20070;-73
2022/10/09 03:20:47;;;;;;;6.93;3.83;;;;;;;1.59;100.00;93564.59;2136085;27;20083;-71
2022/10/09 03:21:48;;;;;;;7.55;3.97;;;;;;;1.53;100.00;93573.88;2136790;27;20034;-72
2022/10/09 03:22:49;;;;;;;6.85;3.95;;;;;;;1.56;100.00;93569.81;2136775;27;20030;-71
2022/10/09 03:23:52;;;;;;;7.20;3.85;;;;;;;1.54;100.00;93572.78;2136254;27;20049;-72
2022/10/09 03:24:53;;;;;;;7.32;3.55;;;;;;;1.54;100.00;93570.16;2136392;27;20058;-73
2022/10/09 03:25:59;;;;;;;8.50;4.07;;;;;;;1.51;100.00;93565.56;2124867;27;20080;-72
2022/10/09 03:27:00;;;;;;;6.30;3.58;;;;;;;1.39;100.00;93571.72;2123018;27;20031;-71
2022/10/09 03:28:00;;;;;;;5.05;3.70;;;;;;;1.47;100.00;93572.63;2131131;27;20034;-72
2022/10/09 03:29:01;;;;;;;5.68;3.75;;;;;;;1.47;100.00;93567.38;2131259;27;20027;-71
2022/10/09 03:30:03;;;;;;;6.80;3.65;;;;;;;1.48;100.00;93566.25;2130798;27;20031;-71
2022/10/09 03:31:04;;;;;;;16.15;5.10;;;;;;;1.50;100.00;93571.97;2130367;27;20050;-71
2022/10/09 03:32:05;;;;;;;6.05;3.83;;;;;;;1.54;100.00;93566.72;2118914;27;20101;-71
2022/10/09 03:33:06;;;;;;;11.95;4.10;;;;;;;1.48;100.00;93561.75;2121957;27;20023;-71
2022/10/09 03:34:09;;;;;;;7.53;4.00;;;;;;;1.45;100.00;93566.97;2130774;27;20026;-72
2022/10/09 03:35:10;;;;;;;8.45;3.88;;;;;;;1.46;100.00;93565.84;2130958;27;20133;-74
2022/10/09 03:36:12;;;;;;;8.25;4.00;;;;;;;1.40;100.00;93557.44;2130933;27;20472;-73
2022/10/09 03:37:13;;;;;;;4.38;3.15;;;;;;;1.41;100.00;93566.91;2129711;27;20364;-72
2022/10/09 03:38:15;;;;;;;8.85;4.05;;;;;;;1.39;100.00;93565.69;2121501;27;20054;-71
2022/10/09 03:39:16;;;;;;;7.95;3.85;;;;;;;1.44;100.00;93571.44;2121975;27;20038;-71
2022/10/09 03:40:17;;;;;;;7.38;3.33;;;;;;;1.40;100.00;93565.34;2130935;27;20055;-72
2022/10/09 03:41:18;;;;;;;6.13;3.60;;;;;;;1.39;100.00;93563.81;2130928;27;20034;-71
2022/10/09 03:42:19;;;;;;;10.07;3.70;;;;;;;1.46;100.00;93571.88;2129592;27;20066;-71
2022/10/09 03:43:20;;;;;;;5.07;3.78;;;;;;;1.38;100.00;93572.84;2124411;27;20019;-72
2022/10/09 03:44:21;;;;;;;12.23;3.78;;;;;;;1.34;100.00;93566.75;2130368;27;20682;-72
2022/10/09 03:45:22;;;;;;;8.10;3.95;;;;;;;1.34;100.00;93571.25;2130909;27;20460;-75
2022/10/09 03:46:23;;;;;;;9.07;4.05;;;;;;;1.31;100.00;93572.69;2131673;27;20151;-73
2022/10/09 03:47:24;;;;;;;14.02;4.32;;;;;;;1.35;100.00;93567.50;2130873;27;20181;-72
2022/10/09 03:48:25;;;;;;;6.45;4.22;;;;;;;1.38;100.00;93572.84;2129460;27;20021;-74
2022/10/09 03:49:26;;;;;;;9.48;4.05;;;;;;;1.40;100.00;93564.59;2130448;27;20033;-72
2022/10/09 03:50:27;;;;;;;7.82;3.92;;;;;;;1.33;100.00;93567.84;2130833;27;20053;-73
2022/10/09 03:51:28;;;;;;;7.25;3.75;;;;;;;1.34;100.00;93565.97;2130635;27;20025;-71
2022/10/09 03:52:29;;;;;;;7.47;3.92;;;;;;;1.36;100.00;93566.38;2130887;27;20071;-71
2022/10/09 03:53:30;;;;;;;8.45;4.20;;;;;;;1.32;100.00;93562.91;2129302;27;20138;-71
2022/10/09 03:54:31;;;;;;;11.25;4.15;;;;;;;1.36;100.00;93571.66;2121199;27;20079;-72
2022/10/09 03:55:34;;;;;;;8.57;4.75;;;;;;;1.39;100.00;93566.47;2113059;28;20376;-73
2022/10/09 03:56:35;;;;;;;7.95;4.20;;;;;;;1.48;100.00;93569.66;2125559;27;20365;-73
2022/10/09 03:57:36;;;;;;;10.45;4.13;;;;;;;1.40;100.00;93573.25;2130880;27;20118;-72
2022/10/09 03:58:37;;;;;;;16.08;4.63;;;;;;;1.37;100.00;93567.94;2126288;27;20018;-73
2022/10/09 03:59:38;;;;;;;9.48;4.35;;;;;;;1.40;100.00;93570.63;2129598;27;20078;-72
2022/10/09 04:00:39;;;;;;;8.25;4.72;;;;;;;1.50;100.00;93567.44;2121296;27;20488;-72
2022/10/09 04:01:40;;;;;;;7.22;3.97;;;;;;;1.53;100.00;93579.16;2121658;27;20373;-74
2022/10/09 04:02:41;;;;;;;7.43;4.38;;;;;;;1.56;100.00;93572.44;2130998;27;20023;-75
2022/10/09 04:03:42;;;;;;;9.10;4.63;;;;;;;1.63;100.00;93567.31;2117596;27;20457;-73
2022/10/09 04:04:43;;;;;;;11.18;4.82;;;;;;;1.59;100.00;93561.97;2109475;28;20024;-71
2022/10/09 04:05:44;;;;;;;11.48;4.90;;;;;;;1.63;100.00;93568.06;2121887;27;20070;-71
2022/10/09 04:06:45;;;;;;;8.95;4.13;;;;;;;1.60;100.00;93565.38;2130960;27;20050;-73
2022/10/09 04:07:46;;;;;;;16.70;5.25;;;;;;;1.57;100.00;93566.06;2130406;27;20415;-75
2022/10/09 04:08:47;;;;;;;8.65;4.65;;;;;;;1.56;100.00;93561.91;2130761;27;20023;-74
2022/10/09 04:09:47;;;;;;;11.25;4.68;;;;;;;1.59;100.00;93564.59;2120456;27;20042;-71
2022/10/09 04:10:56;;;;;;;8.88;5.00;;;;;;;1.53;100.00;93563.34;2114780;27;20501;-72
2022/10/09 04:11:57;;;;;;;7.07;4.35;;;;;;;1.46;100.00;93565.84;2121275;27;20039;-72
2022/10/09 04:12:58;;;;;;;11.05;5.00;;;;;;;1.43;100.00;93567.31;2121460;27;20050;-73
2022/10/09 04:13:59;;;;;;;8.05;4.07;;;;;;;1.47;100.00;93570.00;2130436;27;20022;-73
2022/10/09 04:15:01;;;;;;;9.27;4.13;;;;;;;1.41;100.00;93566.13;2129647;27;20029;-75
2022/10/09 04:16:03;;;;;;;12.10;4.53;;;;;;;1.43;100.00;93562.03;2130639;27;20022;-70
2022/10/09 04:17:04;;;;;;;8.65;4.65;;;;;;;1.36;100.00;93564.53;2130568;27;20026;-70
2022/10/09 04:18:05;;;;;;;7.80;4.65;;;;;;;1.28;100.00;93562.88;2130427;27;20042;-70
2022/10/09 04:19:06;;;;;;;9.10;4.55;;;;;;;1.32;100.00;93557.66;2130189;27;20022;-70
2022/10/09 04:20:07;;;;;;;7.50;4.78;;;;;;;1.27;100.00;93561.31;2125806;27;20453;-70
2022/10/09 04:21:08;;;;;;;7.53;4.40;;;;;;;1.32;100.00;93563.72;2126564;27;20405;-73
2022/10/09 04:22:09;;;;;;;8.48;4.05;;;;;;;1.27;100.00;93556.06;2121413;27;20039;-70
2022/10/09 04:23:10;;;;;;;7.35;4.35;;;;;;;1.27;100.00;93556.06;2121512;27;20063;-69
2022/10/09 04:24:11;;;;;;;7.45;4.15;;;;;;;1.30;100.00;93551.97;2130225;27;20031;-71
2022/10/09 04:25:12;;;;;;;17.33;4.70;;;;;;;1.25;100.00;93545.13;2130201;27;20077;-73
2022/10/09 04:26:13;;;;;;;8.00;4.03;;;;;;;1.32;100.00;93547.13;2120608;27;20066;-70
2022/10/09 04:27:14;;;;;;;9.48;4.57;;;;;;;1.35;100.00;93549.81;2121332;27;20548;-73
2022/10/09 04:28:15;;;;;;;9.93;4.55;;;;;;;1.33;100.00;93554.69;2130531;27;20034;-69
2022/10/09 04:29:16;;;;;;;8.77;4.45;;;;;;;1.22;100.00;93551.06;2121241;27;20631;-71
2022/10/09 04:30:17;;;;;;;9.90;4.40;;;;;;;1.27;100.00;93556.06;2120632;27;20090;-71
2022/10/09 04:31:18;;;;;;;8.98;4.38;;;;;;;1.31;100.00;93556.13;2120140;27;20496;-70
2022/10/09 04:32:19;;;;;;;7.38;4.00;;;;;;;1.29;100.00;93558.34;2121377;27;20027;-69
2022/10/09 04:33:20;;;;;;;6.60;4.10;;;;;;;1.26;100.00;93550.03;2130530;27;20041;-72
2022/10/09 04:34:21;;;;;;;6.82;4.20;;;;;;;1.25;100.00;93550.38;2121082;27;20107;-71
2022/10/09 04:35:22;;;;;;;9.10;4.32;;;;;;;1.23;100.00;93542.84;2121097;27;20465;-71
2022/10/09 04:36:24;;;;;;;9.77;4.20;;;;;;;1.19;100.00;93539.38;2126207;27;20054;-72
2022/10/09 04:37:25;;;;;;;8.38;3.90;;;;;;;1.21;100.00;93542.41;2130069;27;20031;-70
2022/10/09 04:38:26;;;;;;;9.07;4.28;;;;;;;1.24;100.00;93546.22;2129915;27;20039;-72
2022/10/09 04:39:28;;;;;;;7.47;4.80;;;;;;;1.21;100.00;93545.03;2129957;27;20594;-71
2022/10/09 04:40:29;;;;;;;7.63;4.50;;;;;;;1.20;100.00;93540.88;2121052;27;20015;-70
2022/10/09 04:41:29;;;;;;;7.95;4.03;;;;;;;1.20;100.00;93540.13;2120652;27;20054;-69
2022/10/09 04:42:30;;;;;;;10.00;4.63;;;;;;;1.21;100.00;93545.03;2124849;27;20023;-72
2022/10/09 04:43:33;;;;;;;9.27;4.38;;;;;;;1.19;100.00;93544.63;2130220;27;20030;-70
2022/10/09 04:44:34;;;;;;;9.38;4.53;;;;;;;1.17;100.00;93541.56;2130310;27;20029;-70
2022/10/09 04:45:39;;;;;;;10.98;4.75;;;;;;;1.17;100.00;93544.22;2130200;27;20034;-70
2022/10/09 04:46:40;;;;;;;6.88;4.47;;;;;;;1.16;100.00;93541.94;2125949;27;20456;-72
2022/10/09 04:47:41;;;;;;;7.22;4.80;;;;;;;1.14;100.00;93546.75;2129861;27;20079;-73
2022/10/09 04:48:44;;;;;;;6.57;4.28;;;;;;;1.12;100.00;93547.13;2130065;27;20031;-70
2022/10/09 04:49:45;;;;;;;10.45;4.45;;;;;;;1.12;100.00;93541.09;2130236;27;20038;-70
2022/10/09 04:50:46;;;;;;;22.52;5.03;;;;;;;1.13;100.00;93543.38;2130343;27;20037;-70
2022/10/09 04:51:47;;;;;;;9.05;4.55;;;;;;;1.07;100.00;93541.38;2130140;27;20047;-70
2022/10/09 04:52:48;;;;;;;7.72;4.25;;;;;;;1.07;100.00;93538.72;2129640;27;20046;-72
2022/10/09 04:53:49;;;;;;;9.15;5.07;;;;;;;0.96;100.00;93541.13;2120601;27;20038;-72
2022/10/09 04:54:50;;;;;;;11.95;4.72;;;;;;;0.99;100.00;93540.44;2121045;27;20154;-69
2022/10/09 04:55:50;;;;;;;14.27;5.30;;;;;;;1.02;100.00;93531.13;2129746;27;20038;-72
2022/10/09 04:56:52;;;;;;;8.40;4.70;;;;;;;1.03;100.00;93535.25;2125228;27;20011;-70
2022/10/09 04:57:54;;;;;;;10.75;4.53;;;;;;;1.05;100.00;93533.03;2120010;27;20042;-69
2022/10/09 04:58:54;;;;;;;10.68;4.63;;;;;;;1.00;100.00;93526.19;2130332;27;20027;-70
2022/10/09 04:59:55;;;;;;;8.48;4.80;;;;;;;1.02;100.00;93534.50;2120649;27;20527;-72
2022/10/09 05:00:57;;;;;;;9.93;4.93;;;;;;;0.97;100.00;93526.88;2120881;27;20038;-72